Time;durP1;ratioP1;P1;durP2;ratioP2;P2;SDS_P1;SDS_P2;PMS_P1;PMS_P2;Temp;Humidity;BMP_temperature;BMP_pressure;BME280_temperature;BME280_humidity;BME280_pressure;Samples;Min_cycle;Max_cycle;Signal;HPM_P1;HPM_P2
2023/06/10 00:01:59;;;;;;;1463.80;999.90;;;;;;;33.35;26.62;101531.88;5051988;28;20024;-73
2023/06/10 00:04:25;;;;;;;1449.50;999.90;;;;;;;32.85;27.57;101531.13;5051744;28;20024;-73
2023/06/10 00:06:50;;;;;;;1474.63;999.90;;;;;;;32.03;28.50;101524.22;5050186;28;20081;-73
2023/06/10 00:09:15;;;;;;;1564.25;999.90;;;;;;;33.03;28.28;101527.66;5070306;28;20012;-73
2023/06/10 00:11:42;;;;;;;1610.63;999.90;;;;;;;32.96;28.02;101528.25;5052221;28;20107;-74
2023/06/10 00:14:07;;;;;;;1570.10;999.90;;;;;;;32.14;28.93;101526.78;5044527;28;20017;-74
2023/06/10 00:16:35;;;;;;;1513.22;999.90;;;;;;;32.06;28.69;101529.34;5050352;28;20033;-74
2023/06/10 00:19:03;;;;;;;1455.20;999.90;;;;;;;31.94;28.97;101532.19;5042329;28;20033;-73
2023/06/10 00:21:37;;;;;;;1410.57;999.90;;;;;;;31.85;28.95;101526.72;5038825;28;20029;-73
2023/06/10 00:24:05;;;;;;;1396.22;999.90;;;;;;;31.44;29.20;101529.41;5033059;28;20085;-73
2023/06/10 00:26:30;;;;;;;1455.28;999.90;;;;;;;31.50;29.12;101523.44;5032547;28;20028;-73
2023/06/10 00:28:55;;;;;;;1543.85;999.90;;;;;;;31.41;29.39;101524.28;5049259;28;20032;-73
2023/06/10 00:31:21;;;;;;;1487.93;999.90;;;;;;;31.36;29.34;101526.53;5050503;28;20064;-72
2023/06/10 00:33:46;;;;;;;1460.13;999.90;;;;;;;31.69;28.99;101524.56;5049954;28;20025;-73
2023/06/10 00:36:11;;;;;;;1465.10;999.90;;;;;;;31.26;29.36;101524.63;5049472;28;20017;-73
2023/06/10 00:38:37;;;;;;;1473.22;999.90;;;;;;;31.20;29.32;101522.47;5046990;28;20020;-72
2023/06/10 00:41:02;;;;;;;1483.75;999.90;;;;;;;31.06;29.45;101528.22;5066624;28;20155;-72
2023/06/10 00:43:27;;;;;;;1517.80;999.90;;;;;;;31.00;29.72;101528.72;5049731;28;20025;-73
2023/06/10 00:45:53;;;;;;;1498.43;999.90;;;;;;;30.72;30.08;101528.38;5053091;28;20025;-73
2023/06/10 00:48:19;;;;;;;1520.25;999.90;;;;;;;30.48;30.70;101532.16;5051973;28;20138;-73
2023/06/10 00:50:46;;;;;;;1566.18;999.90;;;;;;;30.96;29.53;101525.41;5051827;28;20057;-73
2023/06/10 00:53:12;;;;;;;1608.85;999.90;;;;;;;31.24;29.33;101529.31;5051339;28;20025;-74
2023/06/10 00:55:38;;;;;;;1608.70;999.90;;;;;;;31.01;29.29;101528.59;5051286;28;20059;-74
2023/06/10 00:58:04;;;;;;;1531.28;999.90;;;;;;;30.54;30.11;101525.38;5053235;28;20036;-72
2023/06/10 01:00:29;;;;;;;1505.30;999.90;;;;;;;31.11;29.53;101521.41;5073307;28;20081;-74
2023/06/10 01:02:55;;;;;;;1238.93;999.90;;;;;;;30.31;30.38;101521.88;5054361;28;20029;-73
2023/06/10 01:05:21;;;;;;;1196.30;999.90;;;;;;;30.20;30.31;101529.03;5055595;28;20031;-73
2023/06/10 01:08:05;;;;;;;1203.35;999.90;;;;;;;30.34;30.52;101532.44;5072696;28;20039;-74
2023/06/10 01:10:50;;;;;;;1186.35;999.90;;;;;;;30.37;30.57;101524.94;5054072;28;20024;-72
2023/06/10 01:13:17;;;;;;;1188.68;999.90;;;;;;;31.11;29.05;101524.13;5055335;28;20025;-74
2023/06/10 01:15:43;;;;;;;1210.60;999.90;;;;;;;31.19;28.90;101526.16;5072427;28;20017;-75
2023/06/10 01:18:14;;;;;;;1208.80;999.90;;;;;;;30.66;29.92;101531.59;5052141;28;20035;-74
2023/06/10 01:20:42;;;;;;;1181.13;999.90;;;;;;;30.73;29.70;101527.38;5054641;28;20032;-73
2023/06/10 01:23:09;;;;;;;1186.75;999.90;;;;;;;30.86;29.50;101533.47;5053609;28;20127;-74
2023/06/10 01:25:38;;;;;;;1169.53;999.90;;;;;;;30.34;30.25;101533.28;5054467;28;20503;-74
2023/06/10 01:28:09;;;;;;;1180.72;999.90;;;;;;;30.40;29.94;101529.22;5055034;28;20468;-74
2023/06/10 01:31:12;;;;;;;1201.65;999.90;;;;;;;31.03;29.09;101536.56;5050388;28;20021;-73
2023/06/10 01:33:42;;;;;;;1181.28;999.90;;;;;;;30.89;28.99;101535.88;5066474;28;20468;-74
2023/06/10 01:36:08;;;;;;;1178.93;999.90;;;;;;;30.61;29.90;101532.84;5054765;28;20043;-74
2023/06/10 01:38:43;;;;;;;1177.88;999.90;;;;;;;30.20;30.48;101531.75;5038069;28;20488;-74
2023/06/10 01:41:10;;;;;;;1182.63;999.90;;;;;;;30.92;29.28;101524.81;5034572;28;20039;-74
2023/06/10 01:43:38;;;;;;;1183.05;999.90;;;;;;;30.83;29.16;101530.16;5034561;28;20028;-74
2023/06/10 01:46:03;;;;;;;1205.93;999.90;;;;;;;30.78;29.41;101531.41;5052332;28;20542;-72
2023/06/10 01:48:28;;;;;;;1212.28;999.90;;;;;;;31.04;29.04;101524.81;5053237;28;20029;-73
2023/06/10 01:50:55;;;;;;;1214.72;999.90;;;;;;;30.66;29.66;101534.28;5053257;28;20020;-73
2023/06/10 01:53:22;;;;;;;1212.57;999.90;;;;;;;30.71;29.53;101532.06;5053651;28;20263;-74
2023/06/10 01:55:47;;;;;;;1243.55;999.90;;;;;;;30.56;29.64;101535.06;5052681;28;20566;-74
2023/06/10 01:58:12;;;;;;;1223.95;999.90;;;;;;;30.47;29.62;101530.44;5054731;28;20020;-74
2023/06/10 02:00:38;;;;;;;1282.22;999.90;;;;;;;30.02;30.63;101525.16;5071211;28;20035;-74
2023/06/10 02:03:03;;;;;;;1265.65;999.90;;;;;;;30.20;30.42;101529.03;5054354;28;20476;-73
2023/06/10 02:05:29;;;;;;;1251.05;999.90;;;;;;;30.35;29.83;101536.81;5072534;28;20036;-72
2023/06/10 02:07:54;;;;;;;1273.38;999.90;;;;;;;30.45;30.12;101540.50;5069128;28;20024;-73
2023/06/10 02:10:20;;;;;;;1267.50;999.90;;;;;;;30.54;29.50;101531.66;5054094;28;20016;-73
2023/06/10 02:12:45;;;;;;;1225.50;999.90;;;;;;;30.20;29.72;101529.03;5071073;28;20063;-74
2023/06/10 02:15:10;;;;;;;1236.38;999.90;;;;;;;30.75;28.99;101533.53;5072316;28;20043;-73
2023/06/10 02:17:37;;;;;;;1225.65;999.90;;;;;;;30.37;29.70;101540.28;5053620;28;20039;-74
2023/06/10 02:20:06;;;;;;;1194.53;999.90;;;;;;;29.30;30.86;101540.72;5053652;28;20404;-74
2023/06/10 02:22:32;;;;;;;1194.18;999.90;;;;;;;29.73;30.46;101533.75;5066705;28;20036;-73
2023/06/10 02:24:57;;;;;;;1216.00;999.90;;;;;;;30.54;29.26;101528.97;5071327;28;20020;-73
2023/06/10 02:27:23;;;;;;;1302.50;999.90;;;;;;;30.61;29.50;101538.25;5071331;28;20510;-74
2023/06/10 02:29:48;;;;;;;1278.28;999.90;;;;;;;30.28;29.30;101537.34;5069778;28;20035;-73
2023/06/10 02:32:13;;;;;;;1194.63;999.90;;;;;;;29.34;30.81;101549.41;5053982;28;20028;-73
2023/06/10 02:34:38;;;;;;;1178.03;999.90;;;;;;;29.99;29.83;101538.88;5071001;28;20033;-73
2023/06/10 02:37:04;;;;;;;1221.00;999.90;;;;;;;30.05;29.63;101541.09;5071025;28;20060;-73
2023/06/10 02:39:30;;;;;;;1180.32;999.90;;;;;;;28.78;31.55;101542.88;5071563;28;20036;-74
2023/06/10 02:41:55;;;;;;;1219.90;999.90;;;;;;;29.91;29.70;101544.91;5052331;28;20031;-74
2023/06/10 02:44:20;;;;;;;1233.72;999.90;;;;;;;30.25;29.36;101534.03;5053553;28;20032;-74
2023/06/10 02:46:46;;;;;;;1226.15;999.90;;;;;;;29.60;30.31;101542.81;5048161;28;20592;-74
2023/06/10 02:49:12;;;;;;;1236.68;999.90;;;;;;;29.99;30.13;101541.59;5033278;28;20024;-74
2023/06/10 02:51:38;;;;;;;1209.93;999.90;;;;;;;29.94;29.62;101540.13;5052931;28;20028;-73
2023/06/10 02:54:04;;;;;;;1249.40;999.90;;;;;;;29.92;29.69;101542.09;5070807;28;20138;-73
2023/06/10 02:56:31;;;;;;;1222.68;999.90;;;;;;;29.93;29.57;101538.41;5073146;28;20512;-75
2023/06/10 02:58:56;;;;;;;1179.35;999.90;;;;;;;29.61;30.18;101541.84;5090583;28;20027;-74
2023/06/10 03:01:22;;;;;;;1197.35;999.90;;;;;;;29.87;29.36;101538.91;5059346;28;20487;-74
2023/06/10 03:03:47;;;;;;;1176.03;999.90;;;;;;;28.99;30.26;101552.97;5070206;28;20024;-74
2023/06/10 03:06:13;;;;;;;1156.60;999.90;;;;;;;29.23;30.28;101548.38;5053607;28;20147;-74
2023/06/10 03:08:40;;;;;;;1164.07;999.90;;;;;;;29.76;29.36;101541.59;5053026;28;20036;-74
2023/06/10 03:11:05;;;;;;;1203.38;999.90;;;;;;;29.94;29.42;101545.50;5070463;28;20057;-75
2023/06/10 03:13:31;;;;;;;1163.60;999.90;;;;;;;29.60;29.67;101541.97;5061779;28;20400;-74
2023/06/10 03:15:57;;;;;;;1144.00;999.90;;;;;;;29.06;29.80;101549.72;5071504;28;20047;-75
2023/06/10 03:18:26;;;;;;;1141.93;999.90;;;;;;;29.44;29.46;101550.38;5090311;28;20476;-75
2023/06/10 03:20:52;;;;;;;1118.32;998.83;;;;;;;29.31;29.41;101546.97;5072616;28;20109;-74
2023/06/10 03:23:18;;;;;;;1115.93;997.75;;;;;;;28.96;30.46;101547.84;5090650;28;20051;-74
2023/06/10 03:25:43;;;;;;;1116.25;998.92;;;;;;;28.74;30.31;101549.47;5072571;28;20038;-74
2023/06/10 03:28:09;;;;;;;1120.03;999.53;;;;;;;28.88;29.98;101552.00;5073015;28;20035;-74
2023/06/10 03:30:37;;;;;;;1115.63;999.17;;;;;;;28.96;30.12;101553.22;5078671;28;20481;-73
2023/06/10 03:33:03;;;;;;;1141.43;999.90;;;;;;;28.86;30.28;101553.06;5070847;28;20035;-74
2023/06/10 03:35:29;;;;;;;1115.18;998.13;;;;;;;28.37;30.82;101558.47;5053197;28;20028;-74
2023/06/10 03:37:55;;;;;;;1113.63;997.58;;;;;;;28.06;31.24;101560.72;5051287;28;20594;-73
2023/06/10 03:40:20;;;;;;;1099.97;990.42;;;;;;;28.31;30.45;101558.91;5052953;28;20037;-73
2023/06/10 03:42:45;;;;;;;1096.45;987.78;;;;;;;27.97;31.16;101563.19;5067818;28;20403;-74
2023/06/10 03:45:11;;;;;;;1109.47;995.72;;;;;;;28.38;30.66;101564.69;5090444;28;20085;-73
2023/06/10 03:47:37;;;;;;;1114.88;998.47;;;;;;;28.47;30.75;101564.00;5071662;28;20020;-74
2023/06/10 03:50:04;;;;;;;1099.75;988.60;;;;;;;28.95;29.63;101563.13;5053095;28;20051;-73
2023/06/10 03:52:30;;;;;;;1107.65;994.47;;;;;;;28.72;29.96;101567.56;5052320;28;20028;-73
2023/06/10 03:54:55;;;;;;;1107.90;994.63;;;;;;;28.17;30.81;101573.38;5084123;28;20101;-73
2023/06/10 03:57:21;;;;;;;1113.38;996.88;;;;;;;29.10;29.49;101571.88;5090905;28;20602;-74
2023/06/10 03:59:46;;;;;;;1144.40;999.90;;;;;;;28.60;30.56;101575.56;5072003;28;20016;-74
2023/06/10 04:02:12;;;;;;;1122.32;998.92;;;;;;;28.88;30.13;101568.13;5090771;28;20028;-75
2023/06/10 04:04:37;;;;;;;1155.38;999.90;;;;;;;29.35;29.57;101575.38;5071417;28;20410;-75
2023/06/10 04:07:03;;;;;;;1157.43;999.90;;;;;;;29.12;29.94;101577.97;5052375;28;20032;-74
2023/06/10 04:09:29;;;;;;;1168.63;999.90;;;;;;;28.47;30.60;101572.06;5052175;28;20074;-74
2023/06/10 04:11:54;;;;;;;1151.53;999.90;;;;;;;28.87;30.52;101582.53;5070042;28;20033;-73
2023/06/10 04:14:20;;;;;;;1169.38;999.90;;;;;;;29.36;30.40;101577.06;5052017;28;20028;-73
2023/06/10 04:16:45;;;;;;;1156.85;999.90;;;;;;;28.68;30.56;101577.69;5052217;28;20043;-73
2023/06/10 04:19:10;;;;;;;1174.68;999.90;;;;;;;28.57;31.16;101575.78;5051808;28;20052;-73
2023/06/10 04:21:36;;;;;;;1225.00;999.90;;;;;;;28.99;30.58;101579.88;5052049;28;20499;-74
2023/06/10 04:24:01;;;;;;;1220.45;999.90;;;;;;;28.92;30.67;101575.00;5069708;28;20035;-74
2023/06/10 04:26:27;;;;;;;1214.88;999.90;;;;;;;29.28;29.98;101586.59;5069341;28;20025;-73
2023/06/10 04:28:53;;;;;;;1231.07;999.90;;;;;;;28.67;31.19;101586.72;5052092;28;20020;-73
2023/06/10 04:31:19;;;;;;;1169.13;999.90;;;;;;;28.39;31.49;101590.59;5052556;28;20153;-73
2023/06/10 04:33:44;;;;;;;1293.57;999.90;;;;;;;29.38;30.11;101596.66;5073015;28;20025;-74
2023/06/10 04:36:10;;;;;;;1198.30;999.90;;;;;;;29.34;30.06;101589.81;5074185;28;20388;-74
2023/06/10 04:38:35;;;;;;;1256.15;999.90;;;;;;;28.84;30.81;101593.53;5072137;28;20054;-73
2023/06/10 04:41:00;;;;;;;1268.07;999.90;;;;;;;29.42;30.79;101593.59;5073660;28;20101;-74
2023/06/10 04:43:28;;;;;;;1174.35;999.90;;;;;;;28.82;31.01;101600.84;5055912;28;20056;-74
2023/06/10 04:45:53;;;;;;;1297.85;999.90;;;;;;;29.32;30.33;101595.31;5055620;28;20024;-74
2023/06/10 04:48:18;;;;;;;1089.65;981.85;;;;;;;29.68;30.22;101603.31;5073067;28;20036;-74
2023/06/10 04:50:44;;;;;;;1065.60;961.97;;;;;;;31.20;27.94;101591.78;5055277;28;20119;-75
2023/06/10 04:53:09;;;;;;;995.85;906.78;;;;;;;30.81;28.82;101592.34;5086900;28;20107;-73
2023/06/10 04:55:36;;;;;;;928.67;850.83;;;;;;;31.15;28.13;101596.72;5074535;28;20082;-73
2023/06/10 04:58:01;;;;;;;831.65;767.45;;;;;;;32.02;26.88;101592.78;5075674;28;20016;-72
2023/06/10 05:00:27;;;;;;;773.38;715.45;;;;;;;31.74;26.94;101600.66;5093244;28;20088;-72
2023/06/10 05:02:52;;;;;;;715.40;663.60;;;;;;;32.45;25.89;101599.72;5072443;28;20028;-72
2023/06/10 05:05:18;;;;;;;665.05;617.40;;;;;;;32.35;26.32;101598.88;5075756;28;20028;-72
2023/06/10 05:07:44;;;;;;;662.45;615.47;;;;;;;32.23;26.10;101598.13;5086641;28;20032;-73
2023/06/10 05:10:10;;;;;;;603.45;560.08;;;;;;;31.68;27.28;101596.63;5054521;28;20028;-74
2023/06/10 05:12:35;;;;;;;621.25;577.28;;;;;;;33.06;25.80;101603.19;5073188;28;20472;-74
2023/06/10 05:15:01;;;;;;;634.17;589.75;;;;;;;32.32;26.44;101604.56;5055673;28;20059;-73
2023/06/10 05:17:27;;;;;;;622.35;578.35;;;;;;;31.59;27.25;101602.88;5054651;28;20043;-74
2023/06/10 05:19:52;;;;;;;665.47;618.17;;;;;;;30.56;29.05;101602.50;5054586;28;20028;-73
2023/06/10 05:22:18;;;;;;;728.78;675.15;;;;;;;30.65;29.01;101600.00;5055620;28;20029;-73
2023/06/10 05:24:44;;;;;;;830.22;766.05;;;;;;;30.04;30.30;101607.59;5071998;28;20036;-73
2023/06/10 05:27:10;;;;;;;868.63;797.22;;;;;;;30.03;30.28;101596.94;5062030;28;20024;-73
2023/06/10 05:29:35;;;;;;;945.00;862.17;;;;;;;29.82;30.48;101602.22;5076143;28;20031;-73
2023/06/10 05:32:03;;;;;;;1002.75;909.97;;;;;;;29.79;30.52;101600.59;5071164;28;20031;-72
2023/06/10 05:34:31;;;;;;;1027.80;929.80;;;;;;;30.74;29.65;101601.94;5054375;28;20028;-73
2023/06/10 05:36:57;;;;;;;1063.30;958.40;;;;;;;30.27;29.91;101603.03;5070866;28;20115;-73
2023/06/10 05:39:22;;;;;;;1057.03;953.78;;;;;;;30.40;29.99;101599.31;5063599;28;20166;-73
2023/06/10 05:41:48;;;;;;;1082.43;972.45;;;;;;;31.13;29.22;101602.25;5061840;28;20032;-73
2023/06/10 05:44:13;;;;;;;1065.18;960.78;;;;;;;29.58;30.95;101604.03;5074166;28;20441;-73
2023/06/10 05:46:38;;;;;;;1072.32;965.08;;;;;;;30.22;30.25;101607.09;5091631;28;20027;-72
2023/06/10 05:49:04;;;;;;;1095.72;982.38;;;;;;;30.47;30.43;101616.72;5054816;28;20024;-73
2023/06/10 05:51:29;;;;;;;1080.93;971.72;;;;;;;30.29;30.59;101606.47;5058033;28;20043;-73
2023/06/10 05:53:55;;;;;;;1087.75;977.05;;;;;;;30.25;30.15;101613.09;5085162;28;20063;-74
2023/06/10 05:56:22;;;;;;;1102.18;987.28;;;;;;;30.78;29.98;101614.19;5070295;28;20055;-72
2023/06/10 05:58:48;;;;;;;1091.18;980.22;;;;;;;30.31;30.57;101616.25;5071451;28;20027;-73
2023/06/10 06:01:13;;;;;;;1098.63;986.33;;;;;;;30.54;30.49;101607.19;5070701;28;20028;-73
2023/06/10 06:03:39;;;;;;;1102.85;989.35;;;;;;;30.70;30.02;101611.28;5073503;28;20403;-72
2023/06/10 06:06:04;;;;;;;1087.00;976.72;;;;;;;30.70;30.09;101605.88;5073415;28;20407;-71
2023/06/10 06:08:30;;;;;;;1075.65;968.13;;;;;;;30.21;30.51;101606.25;5070430;28;20031;-72
2023/06/10 06:10:55;;;;;;;1058.65;955.35;;;;;;;31.28;29.27;101609.06;5053240;28;20024;-73
2023/06/10 06:13:20;;;;;;;979.90;892.95;;;;;;;31.21;29.38;101605.16;5072138;28;20562;-72
2023/06/10 06:15:46;;;;;;;820.53;758.22;;;;;;;31.95;28.36;101598.72;5073780;28;20031;-72
2023/06/10 06:18:11;;;;;;;700.03;649.63;;;;;;;34.11;25.56;101609.41;5074210;28;20466;-72
2023/06/10 06:20:36;;;;;;;584.72;544.42;;;;;;;34.54;25.07;101612.44;5072345;28;20024;-71
2023/06/10 06:23:02;;;;;;;468.45;438.40;;;;;;;35.66;23.09;101611.81;5053711;28;20146;-73
2023/06/10 06:25:27;;;;;;;401.73;377.13;;;;;;;35.11;23.87;101612.97;5071863;28;20557;-73
2023/06/10 06:27:52;;;;;;;385.92;362.88;;;;;;;35.76;23.34;101616.28;5069879;28;20460;-73
2023/06/10 06:30:18;;;;;;;395.08;371.88;;;;;;;35.65;23.15;101610.13;5073817;28;20036;-72
2023/06/10 06:32:43;;;;;;;615.40;563.22;;;;;;;36.67;22.07;101609.25;5052491;28;20036;-72
2023/06/10 06:35:09;;;;;;;510.33;478.60;;;;;;;37.17;21.74;101615.56;5053139;28;20020;-72
2023/06/10 06:37:36;;;;;;;420.05;395.95;;;;;;;36.24;22.70;101612.03;5071959;28;20115;-73
2023/06/10 06:40:01;;;;;;;443.40;417.30;;;;;;;36.43;22.20;101615.53;5052869;28;20021;-72
2023/06/10 06:42:27;;;;;;;461.98;434.63;;;;;;;37.16;21.27;101611.97;5052863;28;20032;-72
2023/06/10 06:44:52;;;;;;;500.80;470.42;;;;;;;37.50;21.53;101615.53;5070037;28;20028;-72
2023/06/10 06:47:19;;;;;;;539.97;505.60;;;;;;;38.30;20.46;101622.72;5062520;28;20041;-72
2023/06/10 06:49:46;;;;;;;537.88;504.48;;;;;;;38.35;21.23;101631.22;5071342;28;20090;-73
2023/06/10 06:52:11;;;;;;;512.30;479.77;;;;;;;38.79;19.52;101620.72;5057331;28;20055;-71
2023/06/10 06:54:36;;;;;;;513.65;481.73;;;;;;;39.46;19.03;101627.25;5060946;28;20036;-71
2023/06/10 06:57:02;;;;;;;520.75;487.70;;;;;;;40.15;18.82;101620.63;5080649;28;20028;-73
2023/06/10 06:59:27;;;;;;;548.50;512.30;;;;;;;40.61;17.98;101625.75;5089971;28;20024;-73
2023/06/10 07:01:54;;;;;;;571.72;533.25;;;;;;;41.26;17.63;101620.22;5050758;28;20021;-73
2023/06/10 07:04:21;;;;;;;531.67;496.35;;;;;;;41.61;17.64;101636.69;5052121;28;20025;-73
2023/06/10 07:06:47;;;;;;;529.88;494.23;;;;;;;41.17;17.48;101635.13;5059003;28;20028;-73
2023/06/10 07:09:12;;;;;;;527.13;491.40;;;;;;;42.08;16.70;101641.56;5084064;28;20039;-72
2023/06/10 07:11:37;;;;;;;504.20;470.50;;;;;;;41.97;17.55;101634.75;5079454;28;20035;-73
2023/06/10 07:14:03;;;;;;;482.25;450.85;;;;;;;41.28;17.05;101631.81;5055196;28;20466;-73
2023/06/10 07:16:28;;;;;;;533.55;497.63;;;;;;;42.31;16.05;101633.84;5058417;28;20028;-73
2023/06/10 07:18:54;;;;;;;562.50;523.97;;;;;;;43.29;15.62;101632.41;5051169;28;20032;-72
2023/06/10 07:21:19;;;;;;;556.50;519.05;;;;;;;42.41;16.32;101638.09;5061567;28;20064;-72
2023/06/10 07:23:45;;;;;;;588.67;548.53;;;;;;;41.85;16.39;101634.50;5061692;28;20396;-71
2023/06/10 07:26:11;;;;;;;528.40;492.48;;;;;;;41.89;16.66;101635.78;5062624;28;20036;-71
2023/06/10 07:28:37;;;;;;;578.88;538.58;;;;;;;43.65;15.67;101636.59;5076804;28;20035;-71
2023/06/10 07:31:03;;;;;;;532.25;496.92;;;;;;;43.63;15.49;101635.94;5060374;28;20525;-72
2023/06/10 07:33:29;;;;;;;538.72;503.05;;;;;;;43.38;15.33;101630.28;5062612;28;20822;-72
2023/06/10 07:35:54;;;;;;;511.27;478.50;;;;;;;43.04;15.97;101635.81;5059629;28;20143;-72
2023/06/10 07:38:20;;;;;;;545.63;509.60;;;;;;;42.93;16.25;101639.19;5062135;28;20043;-71
2023/06/10 07:40:45;;;;;;;288.38;272.30;;;;;;;42.73;15.87;101636.44;5072470;28;20066;-72
2023/06/10 07:43:11;;;;;;;160.48;151.57;;;;;;;42.93;15.81;101635.63;5090079;28;20127;-72
2023/06/10 07:45:36;;;;;;;185.52;175.45;;;;;;;43.76;15.81;101636.97;5069952;28;20024;-73
2023/06/10 07:48:01;;;;;;;231.45;218.82;;;;;;;44.91;14.92;101633.31;5069772;28;20064;-72
2023/06/10 07:50:27;;;;;;;191.85;181.48;;;;;;;43.29;15.44;101643.41;5053858;28;20020;-72
2023/06/10 07:52:52;;;;;;;222.25;210.25;;;;;;;43.43;15.27;101638.72;5057679;28;20032;-72
2023/06/10 07:55:17;;;;;;;164.48;155.43;;;;;;;42.70;15.69;101650.59;5057467;28;20040;-71
2023/06/10 07:57:43;;;;;;;187.75;177.65;;;;;;;42.02;16.54;101638.56;5065025;28;20020;-72
2023/06/10 08:00:08;;;;;;;213.05;201.57;;;;;;;43.99;15.17;101640.06;5072380;28;20036;-71
2023/06/10 08:02:37;;;;;;;215.40;203.75;;;;;;;45.13;14.60;101642.06;5075972;28;20029;-71
2023/06/10 08:05:03;;;;;;;198.27;187.40;;;;;;;46.31;14.01;101639.19;5064460;28;20020;-73
2023/06/10 08:07:28;;;;;;;183.85;173.93;;;;;;;46.36;13.54;101644.00;5063248;28;20098;-72
2023/06/10 08:09:54;;;;;;;186.00;175.75;;;;;;;45.67;13.78;101638.72;5077901;28;20563;-72
2023/06/10 08:12:20;;;;;;;190.70;180.10;;;;;;;44.66;14.60;101642.41;5059539;28;20038;-72
2023/06/10 08:14:45;;;;;;;194.35;183.95;;;;;;;43.50;15.04;101644.25;5065451;28;20058;-72
2023/06/10 08:17:11;;;;;;;223.90;211.85;;;;;;;44.38;15.40;101635.41;5065466;28;20123;-72
2023/06/10 08:19:36;;;;;;;214.13;202.68;;;;;;;43.65;15.54;101642.09;5061546;28;20032;-71
2023/06/10 08:22:02;;;;;;;205.93;194.73;;;;;;;44.86;14.59;101642.28;5075634;28;20384;-71
2023/06/10 08:24:27;;;;;;;214.50;203.15;;;;;;;44.88;14.90;101639.31;5055602;28;20079;-72
2023/06/10 08:26:52;;;;;;;233.45;220.82;;;;;;;45.92;14.74;101641.44;5054276;28;20017;-72
2023/06/10 08:29:18;;;;;;;429.88;404.23;;;;;;;46.28;13.53;101636.03;5073342;28;20032;-72
2023/06/10 08:31:45;;;;;;;333.77;314.85;;;;;;;44.16;14.55;101647.81;5053362;28;20032;-72
2023/06/10 08:34:10;;;;;;;372.80;351.10;;;;;;;45.00;15.57;101640.25;5052191;28;20052;-72
2023/06/10 08:36:35;;;;;;;344.83;324.95;;;;;;;43.55;15.45;101647.19;5073739;28;20119;-74
2023/06/10 08:39:01;;;;;;;397.27;373.67;;;;;;;43.27;15.86;101648.28;5077784;28;20046;-71
2023/06/10 08:41:30;;;;;;;421.52;396.48;;;;;;;44.31;15.08;101650.28;5073857;28;20107;-70
2023/06/10 08:44:22;;;;;;;357.60;337.13;;;;;;;43.49;15.11;101648.06;5092719;28;20042;-73
2023/06/10 08:46:48;;;;;;;349.50;329.38;;;;;;;44.67;14.77;101654.28;5068282;28;20024;-71
2023/06/10 08:49:18;;;;;;;1044.60;951.88;;;;;;;45.59;13.46;101648.19;5069607;28;20020;-72
2023/06/10 08:51:44;;;;;;;314.85;297.40;;;;;;;44.27;15.05;101649.00;5074700;28;20028;-72
2023/06/10 08:54:20;;;;;;;704.28;654.45;;;;;;;44.63;14.50;101648.38;5074669;28;20051;-72
2023/06/10 08:56:50;;;;;;;371.42;349.77;;;;;;;46.23;14.05;101650.53;5073923;28;20492;-73
2023/06/10 08:59:16;;;;;;;341.80;322.02;;;;;;;47.15;13.09;101642.94;5067471;28;20031;-73
2023/06/10 09:01:43;;;;;;;331.63;313.13;;;;;;;46.90;13.88;101644.81;5073933;28;20032;-72
2023/06/10 09:04:09;;;;;;;527.25;493.02;;;;;;;47.64;12.94;101643.47;5065236;28;20032;-71
2023/06/10 09:06:36;;;;;;;560.60;524.00;;;;;;;48.49;12.49;101642.88;5079278;28;20088;-73
2023/06/10 09:09:02;;;;;;;707.97;661.60;;;;;;;47.46;12.21;101635.31;5053629;28;20051;-71
2023/06/10 09:11:28;;;;;;;424.58;400.00;;;;;;;47.80;12.30;101635.50;5054008;28;20021;-72
2023/06/10 09:13:53;;;;;;;419.58;395.25;;;;;;;46.70;12.48;101650.72;5073164;28;20030;-73
2023/06/10 09:16:19;;;;;;;493.42;463.63;;;;;;;45.62;14.04;101644.94;5067083;28;20396;-71
2023/06/10 09:18:44;;;;;;;544.75;510.80;;;;;;;46.82;13.94;101647.13;5067147;28;20039;-72
2023/06/10 09:21:10;;;;;;;506.17;475.77;;;;;;;47.28;14.08;101650.13;5082452;28;20464;-72
2023/06/10 09:23:37;;;;;;;366.48;345.83;;;;;;;47.83;12.98;101652.47;5088139;28;20032;-71
2023/06/10 09:26:05;;;;;;;387.38;365.35;;;;;;;48.71;12.79;101652.16;5067245;28;20046;-73
2023/06/10 09:28:30;;;;;;;349.13;329.83;;;;;;;48.99;11.34;101653.16;5063579;28;20039;-72
2023/06/10 09:31:07;;;;;;;326.98;309.05;;;;;;;47.30;12.99;101634.97;5085120;28;20032;-72
2023/06/10 09:33:32;;;;;;;318.75;301.38;;;;;;;47.71;11.64;101643.34;5062876;28;20066;-72
2023/06/10 09:36:01;;;;;;;330.33;312.52;;;;;;;47.52;11.95;101648.19;5079169;28;20060;-72
2023/06/10 09:38:32;;;;;;;312.55;295.90;;;;;;;47.81;11.70;101642.72;5084073;28;20418;-72
2023/06/10 09:40:58;;;;;;;304.05;287.95;;;;;;;47.17;12.19;101647.16;5090333;28;20066;-73
2023/06/10 09:43:39;;;;;;;305.25;288.63;;;;;;;49.29;11.69;101651.97;5070090;28;20020;-73
2023/06/10 09:46:04;;;;;;;285.08;269.85;;;;;;;49.18;10.97;101645.41;5065900;28;20380;-72
2023/06/10 09:48:29;;;;;;;289.50;273.75;;;;;;;49.61;10.65;101648.50;5057466;28;20032;-72
2023/06/10 09:50:55;;;;;;;290.50;275.00;;;;;;;48.49;11.85;101642.88;5071664;28;20042;-72
2023/06/10 09:53:20;;;;;;;202.57;191.95;;;;;;;48.58;11.33;101641.41;5071824;28;20085;-72
2023/06/10 09:55:46;;;;;;;149.27;141.15;;;;;;;47.75;12.31;101639.00;5066284;28;20048;-72
2023/06/10 09:58:11;;;;;;;128.85;122.00;;;;;;;47.06;11.70;101643.31;5064283;28;20032;-73
2023/06/10 10:00:37;;;;;;;181.60;172.07;;;;;;;48.21;11.30;101644.63;5069602;28;20032;-72
2023/06/10 10:03:03;;;;;;;169.85;160.80;;;;;;;47.05;11.44;101649.09;5062888;28;20107;-72
2023/06/10 10:05:29;;;;;;;256.55;242.80;;;;;;;47.76;12.98;101639.81;5072725;28;20045;-72
2023/06/10 10:07:56;;;;;;;246.98;233.70;;;;;;;47.98;11.53;101642.78;5072472;28;20414;-71
2023/06/10 10:10:22;;;;;;;235.10;222.32;;;;;;;48.34;11.39;101636.00;5071388;28;20109;-72
2023/06/10 10:12:50;;;;;;;198.75;188.27;;;;;;;48.22;11.45;101640.78;5074649;28;20035;-71
2023/06/10 10:15:17;;;;;;;157.13;148.80;;;;;;;49.39;11.14;101629.88;5056310;28;20032;-71
2023/06/10 10:17:49;;;;;;;127.63;120.82;;;;;;;50.06;10.22;101632.66;5080871;28;20070;-71
2023/06/10 10:20:19;;;;;;;115.82;109.60;;;;;;;47.98;11.75;101627.00;5064348;28;20123;-72
2023/06/10 10:22:47;;;;;;;93.63;88.63;;;;;;;46.08;12.24;101631.63;5059244;28;20024;-72
2023/06/10 10:25:25;;;;;;;126.07;119.45;;;;;;;46.73;12.11;101630.03;5088323;28;20424;-71
2023/06/10 10:27:58;;;;;;;171.68;162.70;;;;;;;46.73;12.34;101630.88;5082215;28;20156;-71
2023/06/10 10:30:26;;;;;;;328.70;309.45;;;;;;;46.33;12.19;101622.38;5082562;28;20476;-72
2023/06/10 10:33:01;;;;;;;321.95;303.27;;;;;;;45.90;11.85;101625.06;5066453;28;20399;-72
2023/06/10 10:35:26;;;;;;;246.82;233.45;;;;;;;45.67;12.43;101620.28;5070532;28;20029;-71
2023/06/10 10:37:54;;;;;;;315.23;297.33;;;;;;;45.24;13.16;101626.66;5059210;28;20097;-71
2023/06/10 10:40:21;;;;;;;236.07;223.65;;;;;;;45.69;12.25;101620.88;5081780;28;20415;-72
2023/06/10 10:42:49;;;;;;;253.93;240.35;;;;;;;44.92;13.34;101624.00;5082398;28;20206;-71
2023/06/10 10:45:14;;;;;;;252.48;239.05;;;;;;;45.44;12.52;101614.56;5054822;28;20169;-72
2023/06/10 10:47:41;;;;;;;284.25;268.95;;;;;;;46.37;12.75;101612.53;5073692;28;20111;-72